sensor_id;sensor_type;location;lat;lon;timestamp;P1;durP1;ratioP1;P2;durP2;ratioP2
30617;SDS011;17384;51.214;9.202;2022-08-01T00:00:27;4.10;;;3.38;;
30617;SDS011;17384;51.214;9.202;2022-08-01T00:02:52;5.57;;;3.08;;
30617;SDS011;17384;51.214;9.202;2022-08-01T00:05:17;4.28;;;3.10;;
30617;SDS011;17384;51.214;9.202;2022-08-01T00:07:43;4.22;;;3.10;;
30617;SDS011;17384;51.214;9.202;2022-08-01T00:10:09;3.70;;;3.10;;
30617;SDS011;17384;51.214;9.202;2022-08-01T00:12:34;3.10;;;2.85;;
30617;SDS011;17384;51.214;9.202;2022-08-01T00:15:00;3.30;;;3.00;;
30617;SDS011;17384;51.214;9.202;2022-08-01T00:17:25;3.15;;;2.60;;
30617;SDS011;17384;51.214;9.202;2022-08-01T00:19:51;5.93;;;3.10;;
30617;SDS011;17384;51.214;9.202;2022-08-01T00:22:16;2.47;;;2.28;;
30617;SDS011;17384;51.214;9.202;2022-08-01T00:24:41;2.97;;;2.67;;
30617;SDS011;17384;51.214;9.202;2022-08-01T00:27:07;4.53;;;2.80;;
30617;SDS011;17384;51.214;9.202;2022-08-01T00:29:32;4.53;;;3.00;;
30617;SDS011;17384;51.214;9.202;2022-08-01T00:31:57;2.97;;;2.67;;
30617;SDS011;17384;51.214;9.202;2022-08-01T00:34:23;3.33;;;3.03;;
30617;SDS011;17384;51.214;9.202;2022-08-01T00:36:48;4.27;;;3.20;;
30617;SDS011;17384;51.214;9.202;2022-08-01T00:39:13;3.60;;;2.85;;
30617;SDS011;17384;51.214;9.202;2022-08-01T00:41:38;3.53;;;3.10;;
30617;SDS011;17384;51.214;9.202;2022-08-01T00:44:04;6.47;;;3.23;;
30617;SDS011;17384;51.214;9.202;2022-08-01T00:46:30;3.70;;;2.80;;
30617;SDS011;17384;51.214;9.202;2022-08-01T00:48:56;3.35;;;3.05;;
30617;SDS011;17384;51.214;9.202;2022-08-01T00:51:22;3.42;;;2.63;;
30617;SDS011;17384;51.214;9.202;2022-08-01T00:53:47;3.63;;;3.33;;
30617;SDS011;17384;51.214;9.202;2022-08-01T00:56:13;7.13;;;3.58;;
30617;SDS011;17384;51.214;9.202;2022-08-01T00:58:38;3.47;;;3.15;;
30617;SDS011;17384;51.214;9.202;2022-08-01T01:01:03;3.53;;;3.22;;
30617;SDS011;17384;51.214;9.202;2022-08-01T01:03:29;9.63;;;3.97;;
30617;SDS011;17384;51.214;9.202;2022-08-01T01:05:56;5.85;;;4.10;;
30617;SDS011;17384;51.214;9.202;2022-08-01T01:08:30;5.80;;;3.90;;
30617;SDS011;17384;51.214;9.202;2022-08-01T01:11:04;5.20;;;3.60;;
30617;SDS011;17384;51.214;9.202;2022-08-01T01:16:19;7.80;;;3.70;;
30617;SDS011;17384;51.214;9.202;2022-08-01T01:18:47;7.57;;;4.43;;
30617;SDS011;17384;51.214;9.202;2022-08-01T01:31:13;5.82;;;3.90;;
30617;SDS011;17384;51.214;9.202;2022-08-01T01:33:40;5.47;;;3.90;;
30617;SDS011;17384;51.214;9.202;2022-08-01T01:36:08;7.30;;;4.10;;
30617;SDS011;17384;51.214;9.202;2022-08-01T01:38:34;8.45;;;3.90;;
30617;SDS011;17384;51.214;9.202;2022-08-01T01:41:01;10.10;;;4.40;;
30617;SDS011;17384;51.214;9.202;2022-08-01T01:43:27;7.78;;;3.72;;
30617;SDS011;17384;51.214;9.202;2022-08-01T01:45:53;10.43;;;3.97;;
30617;SDS011;17384;51.214;9.202;2022-08-01T01:48:19;14.18;;;3.95;;
30617;SDS011;17384;51.214;9.202;2022-08-01T01:50:45;9.68;;;3.70;;
30617;SDS011;17384;51.214;9.202;2022-08-01T01:53:12;8.63;;;4.70;;
30617;SDS011;17384;51.214;9.202;2022-08-01T01:55:38;5.22;;;3.85;;
30617;SDS011;17384;51.214;9.202;2022-08-01T01:58:04;8.32;;;3.50;;
30617;SDS011;17384;51.214;9.202;2022-08-01T02:00:30;7.03;;;4.20;;
30617;SDS011;17384;51.214;9.202;2022-08-01T02:02:56;9.95;;;4.30;;
30617;SDS011;17384;51.214;9.202;2022-08-01T02:05:22;9.60;;;4.95;;
30617;SDS011;17384;51.214;9.202;2022-08-01T02:07:47;10.27;;;4.35;;
30617;SDS011;17384;51.214;9.202;2022-08-01T02:10:14;7.55;;;4.60;;
30617;SDS011;17384;51.214;9.202;2022-08-01T02:12:41;10.10;;;5.18;;
30617;SDS011;17384;51.214;9.202;2022-08-01T02:15:07;9.55;;;4.90;;
30617;SDS011;17384;51.214;9.202;2022-08-01T02:17:34;9.75;;;4.88;;
30617;SDS011;17384;51.214;9.202;2022-08-01T02:20:02;11.90;;;5.00;;
30617;SDS011;17384;51.214;9.202;2022-08-01T02:22:32;12.95;;;5.22;;
30617;SDS011;17384;51.214;9.202;2022-08-01T02:25:02;8.00;;;4.85;;
30617;SDS011;17384;51.214;9.202;2022-08-01T02:27:30;12.35;;;4.80;;
30617;SDS011;17384;51.214;9.202;2022-08-01T02:29:58;14.52;;;4.90;;
30617;SDS011;17384;51.214;9.202;2022-08-01T02:32:24;11.65;;;4.93;;
30617;SDS011;17384;51.214;9.202;2022-08-01T02:34:50;17.30;;;5.35;;
30617;SDS011;17384;51.214;9.202;2022-08-01T02:37:16;8.32;;;5.30;;
30617;SDS011;17384;51.214;9.202;2022-08-01T02:39:42;11.50;;;5.38;;
30617;SDS011;17384;51.214;9.202;2022-08-01T02:42:09;9.88;;;5.25;;
30617;SDS011;17384;51.214;9.202;2022-08-01T02:44:38;10.02;;;5.60;;
30617;SDS011;17384;51.214;9.202;2022-08-01T02:47:04;12.48;;;5.28;;
30617;SDS011;17384;51.214;9.202;2022-08-01T02:49:31;11.77;;;5.13;;
30617;SDS011;17384;51.214;9.202;2022-08-01T02:51:59;12.38;;;5.63;;
30617;SDS011;17384;51.214;9.202;2022-08-01T02:54:24;14.98;;;5.13;;
30617;SDS011;17384;51.214;9.202;2022-08-01T02:56:50;8.50;;;4.57;;
30617;SDS011;17384;51.214;9.202;2022-08-01T02:59:18;11.05;;;5.00;;
30617;SDS011;17384;51.214;9.202;2022-08-01T03:01:44;11.50;;;5.32;;
30617;SDS011;17384;51.214;9.202;2022-08-01T03:04:10;12.52;;;5.35;;
30617;SDS011;17384;51.214;9.202;2022-08-01T03:06:35;8.05;;;5.10;;
30617;SDS011;17384;51.214;9.202;2022-08-01T03:09:02;9.15;;;5.55;;
30617;SDS011;17384;51.214;9.202;2022-08-01T03:11:28;8.80;;;5.22;;
30617;SDS011;17384;51.214;9.202;2022-08-01T03:13:55;8.38;;;5.07;;
30617;SDS011;17384;51.214;9.202;2022-08-01T03:16:21;10.02;;;6.35;;
30617;SDS011;17384;51.214;9.202;2022-08-01T03:18:46;7.50;;;5.00;;
30617;SDS011;17384;51.214;9.202;2022-08-01T03:21:13;11.15;;;6.03;;
30617;SDS011;17384;51.214;9.202;2022-08-01T03:23:38;7.03;;;5.18;;
30617;SDS011;17384;51.214;9.202;2022-08-01T03:26:05;9.00;;;5.90;;
30617;SDS011;17384;51.214;9.202;2022-08-01T03:28:31;5.97;;;5.32;;
30617;SDS011;17384;51.214;9.202;2022-08-01T03:30:57;8.95;;;5.85;;
30617;SDS011;17384;51.214;9.202;2022-08-01T03:33:23;7.07;;;6.28;;
30617;SDS011;17384;51.214;9.202;2022-08-01T03:35:50;8.63;;;6.25;;
30617;SDS011;17384;51.214;9.202;2022-08-01T03:38:19;12.35;;;5.80;;
30617;SDS011;17384;51.214;9.202;2022-08-01T03:40:47;9.43;;;6.10;;
30617;SDS011;17384;51.214;9.202;2022-08-01T03:43:15;12.23;;;5.88;;
30617;SDS011;17384;51.214;9.202;2022-08-01T03:45:46;8.45;;;6.35;;
30617;SDS011;17384;51.214;9.202;2022-08-01T03:48:16;13.05;;;6.55;;
30617;SDS011;17384;51.214;9.202;2022-08-01T03:50:42;8.38;;;6.90;;
30617;SDS011;17384;51.214;9.202;2022-08-01T03:53:08;11.52;;;5.63;;
30617;SDS011;17384;51.214;9.202;2022-08-01T03:55:35;10.52;;;6.68;;
30617;SDS011;17384;51.214;9.202;2022-08-01T03:58:02;9.27;;;7.13;;
30617;SDS011;17384;51.214;9.202;2022-08-01T04:00:28;13.35;;;7.57;;
30617;SDS011;17384;51.214;9.202;2022-08-01T04:02:55;8.00;;;7.03;;
30617;SDS011;17384;51.214;9.202;2022-08-01T04:05:20;10.65;;;6.88;;
30617;SDS011;17384;51.214;9.202;2022-08-01T04:07:48;16.23;;;7.55;;
30617;SDS011;17384;51.214;9.202;2022-08-01T04:10:24;19.33;;;8.23;;
30617;SDS011;17384;51.214;9.202;2022-08-01T04:12:49;8.38;;;6.88;;
30617;SDS011;17384;51.214;9.202;2022-08-01T04:15:15;10.73;;;7.55;;
30617;SDS011;17384;51.214;9.202;2022-08-01T04:17:40;17.10;;;8.55;;
30617;SDS011;17384;51.214;9.202;2022-08-01T04:20:05;11.57;;;6.77;;
30617;SDS011;17384;51.214;9.202;2022-08-01T04:22:31;11.30;;;6.82;;
30617;SDS011;17384;51.214;9.202;2022-08-01T04:24:57;8.07;;;6.68;;
30617;SDS011;17384;51.214;9.202;2022-08-01T04:27:25;8.88;;;7.15;;
30617;SDS011;17384;51.214;9.202;2022-08-01T04:29:53;14.82;;;7.50;;
30617;SDS011;17384;51.214;9.202;2022-08-01T04:32:20;10.30;;;7.18;;
30617;SDS011;17384;51.214;9.202;2022-08-01T04:34:46;13.23;;;7.20;;
30617;SDS011;17384;51.214;9.202;2022-08-01T04:37:12;10.05;;;7.30;;
30617;SDS011;17384;51.214;9.202;2022-08-01T04:39:38;17.13;;;8.77;;
30617;SDS011;17384;51.214;9.202;2022-08-01T04:42:04;14.02;;;8.85;;
30617;SDS011;17384;51.214;9.202;2022-08-01T04:44:30;15.52;;;8.73;;
30617;SDS011;17384;51.214;9.202;2022-08-01T04:46:58;9.55;;;7.55;;
30617;SDS011;17384;51.214;9.202;2022-08-01T04:49:23;14.68;;;8.38;;
30617;SDS011;17384;51.214;9.202;2022-08-01T04:51:52;21.23;;;9.02;;
30617;SDS011;17384;51.214;9.202;2022-08-01T04:54:22;14.32;;;7.72;;
30617;SDS011;17384;51.214;9.202;2022-08-01T04:56:47;17.30;;;8.80;;
30617;SDS011;17384;51.214;9.202;2022-08-01T04:59:13;20.98;;;9.60;;
30617;SDS011;17384;51.214;9.202;2022-08-01T05:01:57;23.95;;;9.13;;
30617;SDS011;17384;51.214;9.202;2022-08-01T05:04:22;28.97;;;10.53;;
30617;SDS011;17384;51.214;9.202;2022-08-01T05:06:48;16.25;;;10.73;;
30617;SDS011;17384;51.214;9.202;2022-08-01T05:09:13;15.87;;;10.23;;
30617;SDS011;17384;51.214;9.202;2022-08-01T05:11:38;16.88;;;10.32;;
30617;SDS011;17384;51.214;9.202;2022-08-01T05:14:03;24.60;;;10.67;;
30617;SDS011;17384;51.214;9.202;2022-08-01T05:16:29;23.67;;;10.83;;
30617;SDS011;17384;51.214;9.202;2022-08-01T05:18:54;31.33;;;10.97;;
30617;SDS011;17384;51.214;9.202;2022-08-01T05:21:19;17.47;;;9.90;;
30617;SDS011;17384;51.214;9.202;2022-08-01T05:23:45;13.32;;;9.63;;
30617;SDS011;17384;51.214;9.202;2022-08-01T05:26:10;15.33;;;9.53;;
30617;SDS011;17384;51.214;9.202;2022-08-01T05:28:36;13.73;;;9.25;;
30617;SDS011;17384;51.214;9.202;2022-08-01T05:31:01;15.90;;;9.32;;
30617;SDS011;17384;51.214;9.202;2022-08-01T05:33:27;16.27;;;10.40;;
30617;SDS011;17384;51.214;9.202;2022-08-01T05:35:52;14.02;;;9.45;;
30617;SDS011;17384;51.214;9.202;2022-08-01T05:38:18;13.33;;;7.90;;
30617;SDS011;17384;51.214;9.202;2022-08-01T05:40:43;17.23;;;8.68;;
30617;SDS011;17384;51.214;9.202;2022-08-01T05:43:08;9.50;;;6.40;;
30617;SDS011;17384;51.214;9.202;2022-08-01T05:45:33;7.90;;;4.20;;
30617;SDS011;17384;51.214;9.202;2022-08-01T05:47:59;8.25;;;3.72;;
30617;SDS011;17384;51.214;9.202;2022-08-01T05:50:24;5.50;;;3.85;;
30617;SDS011;17384;51.214;9.202;2022-08-01T05:52:49;7.07;;;3.50;;
30617;SDS011;17384;51.214;9.202;2022-08-01T05:55:15;3.90;;;2.90;;
30617;SDS011;17384;51.214;9.202;2022-08-01T05:57:40;6.87;;;3.17;;
30617;SDS011;17384;51.214;9.202;2022-08-01T06:00:05;4.87;;;2.70;;
30617;SDS011;17384;51.214;9.202;2022-08-01T06:02:31;6.45;;;2.70;;
30617;SDS011;17384;51.214;9.202;2022-08-01T06:04:56;5.40;;;2.67;;
30617;SDS011;17384;51.214;9.202;2022-08-01T06:07:21;9.00;;;2.90;;
30617;SDS011;17384;51.214;9.202;2022-08-01T06:09:47;3.67;;;2.58;;
30617;SDS011;17384;51.214;9.202;2022-08-01T06:12:12;3.43;;;2.20;;
30617;SDS011;17384;51.214;9.202;2022-08-01T06:14:37;4.80;;;2.72;;
30617;SDS011;17384;51.214;9.202;2022-08-01T06:17:02;5.03;;;2.87;;
30617;SDS011;17384;51.214;9.202;2022-08-01T06:19:28;4.20;;;2.83;;
30617;SDS011;17384;51.214;9.202;2022-08-01T06:21:53;4.13;;;3.10;;
30617;SDS011;17384;51.214;9.202;2022-08-01T06:24:19;3.60;;;2.88;;
30617;SDS011;17384;51.214;9.202;2022-08-01T06:26:44;5.50;;;3.00;;
30617;SDS011;17384;51.214;9.202;2022-08-01T06:29:09;5.07;;;3.47;;
30617;SDS011;17384;51.214;9.202;2022-08-01T06:31:34;6.73;;;3.27;;
30617;SDS011;17384;51.214;9.202;2022-08-01T06:34:00;6.63;;;3.33;;
30617;SDS011;17384;51.214;9.202;2022-08-01T06:36:25;4.38;;;3.22;;
30617;SDS011;17384;51.214;9.202;2022-08-01T06:38:51;4.47;;;3.90;;
30617;SDS011;17384;51.214;9.202;2022-08-01T06:41:16;4.93;;;4.03;;
30617;SDS011;17384;51.214;9.202;2022-08-01T06:43:41;6.93;;;3.95;;
30617;SDS011;17384;51.214;9.202;2022-08-01T06:46:06;5.47;;;4.30;;
30617;SDS011;17384;51.214;9.202;2022-08-01T06:48:32;9.70;;;4.30;;
30617;SDS011;17384;51.214;9.202;2022-08-01T06:50:57;6.20;;;4.70;;
30617;SDS011;17384;51.214;9.202;2022-08-01T06:53:37;6.68;;;4.10;;
30617;SDS011;17384;51.214;9.202;2022-08-01T06:56:03;8.82;;;4.13;;
30617;SDS011;17384;51.214;9.202;2022-08-01T06:58:29;4.20;;;3.33;;
30617;SDS011;17384;51.214;9.202;2022-08-01T07:00:59;7.40;;;4.00;;
30617;SDS011;17384;51.214;9.202;2022-08-01T07:03:24;6.70;;;3.63;;
30617;SDS011;17384;51.214;9.202;2022-08-01T07:05:50;4.63;;;3.17;;
30617;SDS011;17384;51.214;9.202;2022-08-01T07:08:15;10.10;;;3.80;;
30617;SDS011;17384;51.214;9.202;2022-08-01T07:10:40;7.57;;;4.10;;
30617;SDS011;17384;51.214;9.202;2022-08-01T07:13:15;3.83;;;3.40;;
30617;SDS011;17384;51.214;9.202;2022-08-01T07:15:46;5.00;;;3.20;;
30617;SDS011;17384;51.214;9.202;2022-08-01T07:18:11;5.53;;;3.38;;
30617;SDS011;17384;51.214;9.202;2022-08-01T07:20:37;4.57;;;2.97;;
30617;SDS011;17384;51.214;9.202;2022-08-01T07:23:03;4.57;;;3.28;;
30617;SDS011;17384;51.214;9.202;2022-08-01T07:25:28;6.82;;;3.25;;
30617;SDS011;17384;51.214;9.202;2022-08-01T07:27:53;9.05;;;3.60;;
30617;SDS011;17384;51.214;9.202;2022-08-01T07:30:19;5.18;;;2.92;;
30617;SDS011;17384;51.214;9.202;2022-08-01T07:32:44;4.45;;;2.97;;
30617;SDS011;17384;51.214;9.202;2022-08-01T07:35:10;4.07;;;3.42;;
30617;SDS011;17384;51.214;9.202;2022-08-01T07:37:35;5.68;;;3.05;;
30617;SDS011;17384;51.214;9.202;2022-08-01T07:40:04;5.63;;;3.08;;
30617;SDS011;17384;51.214;9.202;2022-08-01T07:42:30;3.20;;;2.90;;
30617;SDS011;17384;51.214;9.202;2022-08-01T07:44:56;4.80;;;3.58;;
30617;SDS011;17384;51.214;9.202;2022-08-01T07:47:24;4.50;;;3.63;;
30617;SDS011;17384;51.214;9.202;2022-08-01T07:49:50;4.45;;;3.00;;
30617;SDS011;17384;51.214;9.202;2022-08-01T07:52:15;3.97;;;3.05;;
30617;SDS011;17384;51.214;9.202;2022-08-01T07:54:41;5.17;;;2.83;;
30617;SDS011;17384;51.214;9.202;2022-08-01T07:57:06;5.93;;;3.03;;
30617;SDS011;17384;51.214;9.202;2022-08-01T07:59:32;5.68;;;3.50;;
30617;SDS011;17384;51.214;9.202;2022-08-01T08:01:58;5.38;;;3.28;;
30617;SDS011;17384;51.214;9.202;2022-08-01T08:04:23;4.43;;;3.10;;
30617;SDS011;17384;51.214;9.202;2022-08-01T08:06:48;7.32;;;3.15;;
30617;SDS011;17384;51.214;9.202;2022-08-01T08:09:14;4.30;;;2.67;;
30617;SDS011;17384;51.214;9.202;2022-08-01T08:11:41;4.85;;;2.95;;
30617;SDS011;17384;51.214;9.202;2022-08-01T08:14:06;3.53;;;2.90;;
30617;SDS011;17384;51.214;9.202;2022-08-01T08:16:31;3.70;;;2.97;;
30617;SDS011;17384;51.214;9.202;2022-08-01T08:18:57;3.17;;;2.87;;
30617;SDS011;17384;51.214;9.202;2022-08-01T08:21:22;4.03;;;3.00;;
30617;SDS011;17384;51.214;9.202;2022-08-01T08:23:47;7.03;;;3.00;;
30617;SDS011;17384;51.214;9.202;2022-08-01T08:26:31;6.43;;;3.28;;
30617;SDS011;17384;51.214;9.202;2022-08-01T08:28:56;3.23;;;2.93;;
30617;SDS011;17384;51.214;9.202;2022-08-01T08:31:22;4.57;;;3.03;;
30617;SDS011;17384;51.214;9.202;2022-08-01T08:33:47;3.78;;;3.08;;
30617;SDS011;17384;51.214;9.202;2022-08-01T08:36:13;3.92;;;3.38;;
30617;SDS011;17384;51.214;9.202;2022-08-01T08:38:39;5.95;;;3.17;;
30617;SDS011;17384;51.214;9.202;2022-08-01T08:41:04;5.88;;;3.30;;
30617;SDS011;17384;51.214;9.202;2022-08-01T08:43:30;3.05;;;2.70;;
30617;SDS011;17384;51.214;9.202;2022-08-01T08:45:55;4.57;;;2.67;;
30617;SDS011;17384;51.214;9.202;2022-08-01T08:48:21;3.70;;;2.83;;
30617;SDS011;17384;51.214;9.202;2022-08-01T08:50:47;7.32;;;3.42;;
30617;SDS011;17384;51.214;9.202;2022-08-01T08:53:13;5.80;;;2.97;;
30617;SDS011;17384;51.214;9.202;2022-08-01T08:55:39;3.33;;;2.92;;
30617;SDS011;17384;51.214;9.202;2022-08-01T08:58:09;3.80;;;3.00;;
30617;SDS011;17384;51.214;9.202;2022-08-01T09:00:34;7.75;;;3.53;;
30617;SDS011;17384;51.214;9.202;2022-08-01T09:03:00;4.97;;;3.10;;
30617;SDS011;17384;51.214;9.202;2022-08-01T09:05:26;3.08;;;2.78;;
30617;SDS011;17384;51.214;9.202;2022-08-01T09:07:52;2.90;;;2.70;;
30617;SDS011;17384;51.214;9.202;2022-08-01T09:10:17;3.67;;;3.10;;
30617;SDS011;17384;51.214;9.202;2022-08-01T09:15:37;3.42;;;2.88;;
30617;SDS011;17384;51.214;9.202;2022-08-01T09:18:02;4.38;;;2.97;;
30617;SDS011;17384;51.214;9.202;2022-08-01T09:20:28;3.47;;;2.92;;
30617;SDS011;17384;51.214;9.202;2022-08-01T09:22:53;4.53;;;2.90;;
30617;SDS011;17384;51.214;9.202;2022-08-01T09:25:19;3.63;;;3.03;;
30617;SDS011;17384;51.214;9.202;2022-08-01T09:27:44;4.55;;;3.70;;
30617;SDS011;17384;51.214;9.202;2022-08-01T09:30:13;3.92;;;3.10;;
30617;SDS011;17384;51.214;9.202;2022-08-01T09:35:23;4.10;;;2.70;;
30617;SDS011;17384;51.214;9.202;2022-08-01T09:37:49;2.78;;;2.58;;
30617;SDS011;17384;51.214;9.202;2022-08-01T09:40:15;2.70;;;2.50;;
30617;SDS011;17384;51.214;9.202;2022-08-01T09:42:40;3.22;;;2.78;;
30617;SDS011;17384;51.214;9.202;2022-08-01T09:45:06;4.30;;;3.45;;
30617;SDS011;17384;51.214;9.202;2022-08-01T09:47:38;4.28;;;3.33;;
30617;SDS011;17384;51.214;9.202;2022-08-01T09:50:04;7.63;;;3.17;;
30617;SDS011;17384;51.214;9.202;2022-08-01T09:52:29;4.88;;;3.15;;
30617;SDS011;17384;51.214;9.202;2022-08-01T09:55:04;9.27;;;3.10;;
30617;SDS011;17384;51.214;9.202;2022-08-01T09:57:30;8.05;;;4.00;;
30617;SDS011;17384;51.214;9.202;2022-08-01T09:59:56;4.13;;;3.72;;
30617;SDS011;17384;51.214;9.202;2022-08-01T10:04:56;5.03;;;4.05;;
30617;SDS011;17384;51.214;9.202;2022-08-01T10:07:22;4.18;;;3.47;;
30617;SDS011;17384;51.214;9.202;2022-08-01T10:09:47;5.07;;;4.00;;
30617;SDS011;17384;51.214;9.202;2022-08-01T10:12:14;5.75;;;3.72;;
30617;SDS011;17384;51.214;9.202;2022-08-01T10:14:40;4.78;;;3.92;;
30617;SDS011;17384;51.214;9.202;2022-08-01T10:17:07;5.00;;;4.50;;
30617;SDS011;17384;51.214;9.202;2022-08-01T10:19:32;4.47;;;4.07;;
30617;SDS011;17384;51.214;9.202;2022-08-01T10:21:59;4.68;;;4.15;;
30617;SDS011;17384;51.214;9.202;2022-08-01T10:24:26;5.97;;;4.47;;
30617;SDS011;17384;51.214;9.202;2022-08-01T10:26:55;6.35;;;4.22;;
30617;SDS011;17384;51.214;9.202;2022-08-01T10:29:23;6.93;;;4.32;;
30617;SDS011;17384;51.214;9.202;2022-08-01T10:34:52;4.40;;;4.00;;
30617;SDS011;17384;51.214;9.202;2022-08-01T10:39:45;4.35;;;3.95;;
30617;SDS011;17384;51.214;9.202;2022-08-01T10:42:11;5.10;;;4.32;;
30617;SDS011;17384;51.214;9.202;2022-08-01T10:44:37;5.82;;;3.97;;
30617;SDS011;17384;51.214;9.202;2022-08-01T10:47:12;4.97;;;4.47;;
30617;SDS011;17384;51.214;9.202;2022-08-01T10:52:26;4.38;;;3.97;;
30617;SDS011;17384;51.214;9.202;2022-08-01T10:55:04;5.50;;;3.42;;
30617;SDS011;17384;51.214;9.202;2022-08-01T10:57:43;4.03;;;2.42;;
30617;SDS011;17384;51.214;9.202;2022-08-01T11:00:09;4.30;;;2.10;;
30617;SDS011;17384;51.214;9.202;2022-08-01T11:02:40;3.80;;;2.97;;
30617;SDS011;17384;51.214;9.202;2022-08-01T11:05:18;4.18;;;2.95;;
30617;SDS011;17384;51.214;9.202;2022-08-01T11:10:58;2.20;;;2.00;;
30617;SDS011;17384;51.214;9.202;2022-08-01T11:13:16;6.20;;;1.98;;
30617;SDS011;17384;51.214;9.202;2022-08-01T11:18:52;2.72;;;2.47;;
30617;SDS011;17384;51.214;9.202;2022-08-01T11:21:17;2.38;;;2.13;;
30617;SDS011;17384;51.214;9.202;2022-08-01T11:23:47;2.90;;;1.70;;
30617;SDS011;17384;51.214;9.202;2022-08-01T11:26:13;2.30;;;1.60;;
30617;SDS011;17384;51.214;9.202;2022-08-01T11:28:39;2.10;;;1.90;;
30617;SDS011;17384;51.214;9.202;2022-08-01T11:38:35;1.40;;;1.30;;
30617;SDS011;17384;51.214;9.202;2022-08-01T11:43:35;4.13;;;1.48;;
30617;SDS011;17384;51.214;9.202;2022-08-01T11:46:00;2.93;;;2.00;;
30617;SDS011;17384;51.214;9.202;2022-08-01T11:48:27;2.85;;;1.83;;
30617;SDS011;17384;51.214;9.202;2022-08-01T11:50:56;1.92;;;1.75;;
30617;SDS011;17384;51.214;9.202;2022-08-01T11:53:22;1.67;;;1.58;;
30617;SDS011;17384;51.214;9.202;2022-08-01T11:55:48;1.67;;;1.58;;
30617;SDS011;17384;51.214;9.202;2022-08-01T11:58:14;2.03;;;1.80;;
30617;SDS011;17384;51.214;9.202;2022-08-01T12:00:40;5.07;;;1.88;;
30617;SDS011;17384;51.214;9.202;2022-08-01T12:03:06;2.08;;;1.88;;
30617;SDS011;17384;51.214;9.202;2022-08-01T12:05:32;3.15;;;2.42;;
30617;SDS011;17384;51.214;9.202;2022-08-01T12:07:59;2.15;;;1.95;;
30617;SDS011;17384;51.214;9.202;2022-08-01T12:10:26;2.63;;;1.85;;
30617;SDS011;17384;51.214;9.202;2022-08-01T12:12:52;1.98;;;1.75;;
30617;SDS011;17384;51.214;9.202;2022-08-01T12:15:19;3.83;;;1.67;;
30617;SDS011;17384;51.214;9.202;2022-08-01T12:17:49;2.80;;;1.48;;
30617;SDS011;17384;51.214;9.202;2022-08-01T12:20:16;2.90;;;1.40;;
30617;SDS011;17384;51.214;9.202;2022-08-01T12:22:44;1.77;;;1.13;;
30617;SDS011;17384;51.214;9.202;2022-08-01T12:25:10;1.38;;;1.27;;
30617;SDS011;17384;51.214;9.202;2022-08-01T12:27:37;1.85;;;1.17;;
30617;SDS011;17384;51.214;9.202;2022-08-01T12:30:04;1.30;;;1.20;;
30617;SDS011;17384;51.214;9.202;2022-08-01T12:32:30;1.83;;;1.35;;
30617;SDS011;17384;51.214;9.202;2022-08-01T12:34:57;2.72;;;1.52;;
30617;SDS011;17384;51.214;9.202;2022-08-01T12:37:25;2.47;;;1.60;;
30617;SDS011;17384;51.214;9.202;2022-08-01T12:39:51;1.55;;;1.45;;
30617;SDS011;17384;51.214;9.202;2022-08-01T12:42:16;1.63;;;1.40;;
30617;SDS011;17384;51.214;9.202;2022-08-01T12:44:42;1.50;;;1.40;;
30617;SDS011;17384;51.214;9.202;2022-08-01T12:47:09;5.40;;;1.58;;
30617;SDS011;17384;51.214;9.202;2022-08-01T12:49:35;4.00;;;1.98;;
30617;SDS011;17384;51.214;9.202;2022-08-01T12:52:01;1.70;;;1.60;;
30617;SDS011;17384;51.214;9.202;2022-08-01T12:54:26;2.45;;;1.60;;
30617;SDS011;17384;51.214;9.202;2022-08-01T12:56:52;1.55;;;1.13;;
30617;SDS011;17384;51.214;9.202;2022-08-01T12:59:22;2.35;;;1.52;;
30617;SDS011;17384;51.214;9.202;2022-08-01T13:01:50;1.52;;;1.20;;
30617;SDS011;17384;51.214;9.202;2022-08-01T13:04:15;1.85;;;1.45;;
30617;SDS011;17384;51.214;9.202;2022-08-01T13:06:41;1.75;;;1.58;;
30617;SDS011;17384;51.214;9.202;2022-08-01T13:09:09;2.63;;;1.80;;
30617;SDS011;17384;51.214;9.202;2022-08-01T13:11:39;1.83;;;1.70;;
30617;SDS011;17384;51.214;9.202;2022-08-01T13:14:05;2.05;;;1.95;;
30617;SDS011;17384;51.214;9.202;2022-08-01T13:16:30;2.38;;;1.83;;
30617;SDS011;17384;51.214;9.202;2022-08-01T13:18:56;2.38;;;2.00;;
30617;SDS011;17384;51.214;9.202;2022-08-01T13:21:28;3.72;;;2.10;;
30617;SDS011;17384;51.214;9.202;2022-08-01T13:24:01;3.72;;;2.80;;
30617;SDS011;17384;51.214;9.202;2022-08-01T13:29:07;3.17;;;2.30;;
30617;SDS011;17384;51.214;9.202;2022-08-01T13:31:36;2.58;;;2.33;;
30617;SDS011;17384;51.214;9.202;2022-08-01T13:34:02;4.53;;;2.65;;
30617;SDS011;17384;51.214;9.202;2022-08-01T13:36:27;3.13;;;2.78;;
30617;SDS011;17384;51.214;9.202;2022-08-01T13:38:54;3.13;;;2.85;;
30617;SDS011;17384;51.214;9.202;2022-08-01T13:41:38;3.20;;;2.85;;
30617;SDS011;17384;51.214;9.202;2022-08-01T13:44:03;5.57;;;3.22;;
30617;SDS011;17384;51.214;9.202;2022-08-01T13:46:28;4.87;;;3.20;;
30617;SDS011;17384;51.214;9.202;2022-08-01T13:48:54;3.80;;;3.40;;
30617;SDS011;17384;51.214;9.202;2022-08-01T13:51:19;3.50;;;3.20;;
30617;SDS011;17384;51.214;9.202;2022-08-01T13:53:44;3.60;;;3.30;;
30617;SDS011;17384;51.214;9.202;2022-08-01T13:56:10;4.10;;;3.47;;
30617;SDS011;17384;51.214;9.202;2022-08-01T13:58:36;5.65;;;3.58;;
30617;SDS011;17384;51.214;9.202;2022-08-01T14:01:01;4.40;;;3.40;;
30617;SDS011;17384;51.214;9.202;2022-08-01T14:03:26;4.20;;;3.80;;
30617;SDS011;17384;51.214;9.202;2022-08-01T14:05:52;6.50;;;3.60;;
30617;SDS011;17384;51.214;9.202;2022-08-01T14:08:17;3.95;;;3.50;;
30617;SDS011;17384;51.214;9.202;2022-08-01T14:10:42;3.22;;;2.92;;
30617;SDS011;17384;51.214;9.202;2022-08-01T14:13:08;2.90;;;2.70;;
30617;SDS011;17384;51.214;9.202;2022-08-01T14:15:33;3.00;;;2.50;;
30617;SDS011;17384;51.214;9.202;2022-08-01T14:17:58;4.53;;;3.03;;
30617;SDS011;17384;51.214;9.202;2022-08-01T14:20:24;5.38;;;2.30;;
30617;SDS011;17384;51.214;9.202;2022-08-01T14:22:50;3.20;;;1.90;;
30617;SDS011;17384;51.214;9.202;2022-08-01T14:25:15;2.83;;;2.17;;
30617;SDS011;17384;51.214;9.202;2022-08-01T14:27:43;3.58;;;2.05;;
30617;SDS011;17384;51.214;9.202;2022-08-01T14:30:08;1.98;;;1.45;;
30617;SDS011;17384;51.214;9.202;2022-08-01T14:32:34;2.80;;;1.77;;
30617;SDS011;17384;51.214;9.202;2022-08-01T14:35:00;2.10;;;1.90;;
30617;SDS011;17384;51.214;9.202;2022-08-01T14:37:25;2.08;;;1.58;;
30617;SDS011;17384;51.214;9.202;2022-08-01T14:39:51;1.97;;;1.63;;
30617;SDS011;17384;51.214;9.202;2022-08-01T14:42:16;1.70;;;1.50;;
30617;SDS011;17384;51.214;9.202;2022-08-01T14:44:41;3.25;;;1.55;;
30617;SDS011;17384;51.214;9.202;2022-08-01T14:47:06;1.40;;;1.30;;
30617;SDS011;17384;51.214;9.202;2022-08-01T14:49:32;1.93;;;1.70;;
30617;SDS011;17384;51.214;9.202;2022-08-01T14:51:57;3.10;;;1.60;;
30617;SDS011;17384;51.214;9.202;2022-08-01T14:54:22;1.57;;;1.43;;
30617;SDS011;17384;51.214;9.202;2022-08-01T14:56:48;1.58;;;1.48;;
30617;SDS011;17384;51.214;9.202;2022-08-01T14:59:13;1.90;;;1.25;;
30617;SDS011;17384;51.214;9.202;2022-08-01T15:01:39;2.45;;;1.42;;
30617;SDS011;17384;51.214;9.202;2022-08-01T15:04:04;1.80;;;1.45;;
30617;SDS011;17384;51.214;9.202;2022-08-01T15:06:29;1.57;;;1.47;;
30617;SDS011;17384;51.214;9.202;2022-08-01T15:08:55;1.58;;;1.40;;
30617;SDS011;17384;51.214;9.202;2022-08-01T15:11:20;2.42;;;1.20;;
30617;SDS011;17384;51.214;9.202;2022-08-01T15:13:45;1.30;;;1.20;;
30617;SDS011;17384;51.214;9.202;2022-08-01T15:16:31;1.75;;;1.55;;
30617;SDS011;17384;51.214;9.202;2022-08-01T15:18:56;1.30;;;1.20;;
30617;SDS011;17384;51.214;9.202;2022-08-01T15:21:21;1.13;;;1.03;;
30617;SDS011;17384;51.214;9.202;2022-08-01T15:23:46;1.70;;;1.17;;
30617;SDS011;17384;51.214;9.202;2022-08-01T15:26:12;1.50;;;1.40;;
30617;SDS011;17384;51.214;9.202;2022-08-01T15:28:38;1.48;;;1.15;;